createdAt,value
2023-04-15T00:02:20.985Z,5.00
2023-04-15T00:04:49.396Z,5.30
2023-04-15T00:07:17.885Z,6.00
2023-04-15T00:09:46.093Z,5.00
2023-04-15T00:12:13.898Z,6.20
2023-04-15T00:14:41.700Z,5.40
2023-04-15T00:17:09.477Z,5.60
2023-04-15T00:19:37.553Z,5.90
2023-04-15T00:22:06.171Z,4.70
2023-04-15T00:24:34.048Z,5.40
2023-04-15T00:27:01.887Z,6.20
2023-04-15T00:29:30.576Z,5.30
2023-04-15T00:32:01.420Z,5.70
2023-04-15T00:34:31.294Z,4.40
2023-04-15T00:36:59.798Z,6.10
2023-04-15T00:39:28.199Z,4.90
2023-04-15T00:41:57.396Z,5.70
2023-04-15T00:44:25.637Z,5.60
2023-04-15T00:46:53.954Z,5.90
2023-04-15T00:49:23.012Z,5.60
2023-04-15T00:51:51.375Z,6.40
2023-04-15T00:54:19.207Z,5.80
2023-04-15T00:56:47.010Z,6.10
2023-04-15T00:59:15.133Z,5.90
2023-04-15T01:01:44.428Z,5.80
2023-04-15T01:04:13.129Z,6.40
2023-04-15T01:06:41.139Z,5.70
2023-04-15T01:09:09.028Z,6.40
2023-04-15T01:11:36.878Z,5.10
2023-04-15T01:14:04.816Z,6.30
2023-04-15T01:16:32.836Z,6.60
2023-04-15T01:19:02.066Z,5.50
2023-04-15T01:21:30.386Z,6.60
2023-04-15T01:23:58.840Z,6.30
2023-04-15T01:26:27.296Z,6.20
2023-04-15T01:28:56.254Z,6.50
2023-04-15T01:31:25.176Z,6.30
2023-04-15T01:33:53.012Z,6.10
2023-04-15T01:36:21.152Z,6.70
2023-04-15T01:38:48.971Z,7.40
2023-04-15T01:41:17.260Z,6.00
2023-04-15T01:43:45.646Z,6.30
2023-04-15T01:46:13.505Z,6.60
2023-04-15T01:48:41.272Z,6.70
2023-04-15T01:51:09.116Z,5.90
2023-04-15T01:53:37.333Z,5.80
2023-04-15T01:56:05.579Z,5.30
2023-04-15T01:58:33.705Z,6.80
2023-04-15T02:01:02.929Z,5.60
2023-04-15T02:03:33.917Z,6.00
2023-04-15T02:06:02.474Z,6.00
2023-04-15T02:08:30.404Z,6.40
2023-04-15T02:10:58.259Z,6.60
2023-04-15T02:13:27.022Z,6.60
2023-04-15T02:15:57.091Z,6.40
2023-04-15T02:18:24.847Z,7.20
2023-04-15T02:20:52.854Z,7.20
2023-04-15T02:23:20.680Z,7.20
2023-04-15T02:25:53.503Z,7.50
2023-04-15T02:28:22.425Z,7.70
2023-04-15T02:30:54.707Z,7.70
2023-04-15T02:33:22.557Z,7.40
2023-04-15T02:35:50.903Z,7.00
2023-04-15T02:38:18.827Z,7.00
2023-04-15T02:40:46.902Z,7.50
2023-04-15T02:43:14.685Z,7.80
2023-04-15T02:45:43.744Z,7.10
2023-04-15T02:48:11.897Z,6.70
2023-04-15T02:50:40.709Z,7.30
2023-04-15T02:53:09.604Z,7.60
2023-04-15T02:55:37.473Z,6.30
2023-04-15T02:58:05.281Z,7.50
2023-04-15T03:00:33.165Z,7.50
2023-04-15T03:03:06.103Z,7.70
2023-04-15T03:05:34.285Z,7.40
2023-04-15T03:08:03.065Z,7.50
2023-04-15T03:10:30.955Z,8.10
2023-04-15T03:12:58.715Z,7.30
2023-04-15T03:15:27.131Z,8.40
2023-04-15T03:17:55.687Z,7.60
2023-04-15T03:20:24.068Z,8.20
2023-04-15T03:22:52.610Z,8.60
2023-04-15T03:25:21.619Z,7.90
2023-04-15T03:27:49.483Z,8.30
2023-04-15T03:30:18.057Z,8.90
2023-04-15T03:32:46.783Z,8.60
2023-04-15T03:35:14.692Z,8.00
2023-04-15T03:37:42.456Z,9.70
2023-04-15T03:40:10.944Z,8.40
2023-04-15T03:42:38.740Z,9.50
2023-04-15T03:45:07.597Z,10.00
2023-04-15T03:47:35.472Z,10.30
2023-04-15T03:50:03.575Z,10.50
2023-04-15T03:52:34.085Z,8.80
2023-04-15T03:55:02.318Z,9.60
2023-04-15T03:57:31.182Z,11.00
2023-04-15T03:59:58.956Z,10.90
2023-04-15T04:02:28.255Z,9.50
2023-04-15T04:04:56.408Z,10.20
2023-04-15T04:07:24.614Z,11.60
2023-04-15T04:09:57.725Z,10.70
2023-04-15T04:12:25.633Z,12.10
2023-04-15T04:14:53.454Z,12.10
2023-04-15T04:17:21.643Z,11.30
2023-04-15T04:19:49.450Z,10.80
2023-04-15T04:22:17.262Z,11.70
2023-04-15T04:24:45.159Z,12.10
2023-04-15T04:27:12.894Z,12.60
2023-04-15T04:29:41.042Z,12.20
2023-04-15T04:32:08.874Z,9.90
2023-04-15T04:34:36.816Z,12.20
2023-04-15T04:37:04.610Z,12.20
2023-04-15T04:39:32.717Z,12.30
2023-04-15T04:42:01.378Z,10.60
2023-04-15T04:44:29.138Z,10.80
2023-04-15T04:46:57.355Z,13.30
2023-04-15T04:49:25.523Z,11.30
2023-04-15T04:51:53.526Z,13.10
2023-04-15T04:54:21.386Z,11.20
2023-04-15T04:56:49.198Z,13.00
2023-04-15T04:59:18.984Z,13.00
2023-04-15T05:01:47.961Z,12.00
2023-04-15T05:04:15.951Z,12.40
2023-04-15T05:06:43.777Z,13.40
2023-04-15T05:09:11.591Z,12.60
2023-04-15T05:11:39.353Z,11.60
2023-04-15T05:14:07.564Z,13.40
2023-04-15T05:16:35.391Z,12.10
2023-04-15T05:19:03.352Z,12.40
2023-04-15T05:21:31.684Z,13.10
2023-04-15T05:23:59.500Z,12.60
2023-04-15T05:26:27.480Z,12.00
2023-04-15T05:28:55.457Z,13.00
2023-04-15T05:31:23.404Z,13.60
2023-04-15T05:33:51.304Z,13.40
2023-04-15T05:36:19.115Z,12.50
2023-04-15T05:38:46.929Z,13.30
2023-04-15T05:41:17.187Z,12.80
2023-04-15T05:43:47.071Z,13.10
2023-04-15T05:46:14.869Z,12.80
2023-04-15T05:48:42.649Z,11.60
2023-04-15T05:51:11.026Z,11.90
2023-04-15T05:53:38.830Z,13.80
2023-04-15T05:56:07.473Z,13.90
2023-04-15T05:58:35.773Z,14.00
2023-04-15T06:01:04.158Z,12.70
2023-04-15T06:03:32.167Z,12.50
2023-04-15T06:06:00.985Z,10.30
2023-04-15T06:08:28.837Z,13.30
2023-04-15T06:10:56.842Z,13.30
2023-04-15T06:13:24.799Z,13.70
2023-04-15T06:15:53.560Z,14.30
2023-04-15T06:18:21.483Z,13.90
2023-04-15T06:20:49.530Z,14.20
2023-04-15T06:23:17.380Z,13.70
2023-04-15T06:25:45.796Z,14.30
2023-04-15T06:28:13.672Z,13.30
2023-04-15T06:30:41.610Z,12.10
2023-04-15T06:33:10.747Z,12.80
2023-04-15T06:35:39.367Z,11.70
2023-04-15T06:38:07.200Z,13.70
2023-04-15T06:40:35.432Z,12.30
2023-04-15T06:43:04.777Z,12.00
2023-04-15T06:45:32.642Z,12.60
2023-04-15T06:48:00.895Z,12.60
2023-04-15T06:50:28.713Z,12.80
2023-04-15T06:52:57.363Z,12.10
2023-04-15T06:55:25.205Z,12.10
2023-04-15T06:57:53.004Z,13.00
2023-04-15T07:00:21.000Z,11.90
2023-04-15T07:02:48.964Z,12.70
2023-04-15T07:05:17.036Z,12.10
2023-04-15T07:07:45.278Z,11.70
2023-04-15T07:10:14.895Z,12.20
2023-04-15T07:12:42.844Z,11.60
2023-04-15T07:15:11.148Z,12.40
2023-04-15T07:17:38.999Z,13.40
2023-04-15T07:20:08.173Z,12.60
2023-04-15T07:22:35.986Z,12.70
2023-04-15T07:25:04.363Z,13.10
2023-04-15T07:27:32.531Z,9.50
2023-04-15T07:30:00.282Z,12.10
2023-04-15T07:32:28.057Z,12.80
2023-04-15T07:34:55.856Z,11.70
2023-04-15T07:37:24.011Z,12.10
2023-04-15T07:39:52.910Z,11.70
2023-04-15T07:42:21.379Z,11.60
2023-04-15T07:44:49.152Z,12.90
2023-04-15T07:47:16.936Z,12.50
2023-04-15T07:49:45.197Z,12.20
2023-04-15T07:52:13.199Z,11.90
2023-04-15T07:54:40.975Z,11.90
2023-04-15T07:57:09.841Z,11.70
2023-04-15T07:59:40.077Z,11.30
2023-04-15T08:02:08.497Z,10.00
2023-04-15T08:04:36.642Z,8.30
2023-04-15T08:07:04.998Z,12.50
2023-04-15T08:09:32.912Z,10.90
2023-04-15T08:12:00.954Z,11.90
2023-04-15T08:14:29.106Z,11.20
2023-04-15T08:16:57.120Z,11.00
2023-04-15T08:19:25.345Z,10.90
2023-04-15T08:21:53.137Z,11.30
2023-04-15T08:24:21.269Z,11.10
2023-04-15T08:26:49.150Z,11.10
2023-04-15T08:29:17.253Z,10.50
2023-04-15T08:31:45.638Z,11.60
2023-04-15T08:34:13.520Z,11.30
2023-04-15T08:36:42.366Z,11.70
2023-04-15T08:39:12.794Z,9.40
2023-04-15T08:41:51.648Z,12.00
2023-04-15T08:44:21.683Z,12.80
2023-04-15T08:46:52.118Z,12.20
2023-04-15T08:49:22.092Z,11.70
2023-04-15T08:51:50.266Z,11.90
2023-04-15T08:54:18.917Z,13.40
2023-04-15T08:56:47.590Z,11.40
2023-04-15T08:59:16.529Z,12.30
2023-04-15T09:01:46.136Z,12.50
2023-04-15T09:04:14.490Z,15.10
2023-04-15T09:06:42.481Z,12.30
2023-04-15T09:09:10.527Z,12.60
2023-04-15T09:11:41.064Z,12.40
2023-04-15T09:14:09.267Z,12.20
2023-04-15T09:17:04.953Z,11.40
2023-04-15T09:19:36.429Z,11.30
2023-04-15T09:22:04.320Z,12.50
2023-04-15T09:24:42.035Z,13.10
2023-04-15T09:27:11.152Z,12.60
2023-04-15T09:29:41.634Z,11.60
2023-04-15T09:32:14.680Z,11.40
2023-04-15T09:34:43.182Z,13.40
2023-04-15T09:37:20.628Z,12.80
2023-04-15T09:39:57.005Z,12.60
2023-04-15T09:42:25.094Z,12.30
2023-04-15T09:44:53.135Z,13.00
2023-04-15T09:47:31.496Z,11.50
2023-04-15T09:50:01.513Z,12.50
2023-04-15T09:52:30.557Z,11.40
2023-04-15T09:55:00.972Z,12.80
2023-04-15T09:57:37.345Z,12.50
2023-04-15T10:00:08.223Z,12.70
2023-04-15T10:02:40.587Z,14.20
2023-04-15T10:05:15.241Z,11.30
2023-04-15T10:07:43.885Z,13.60
2023-04-15T10:10:12.738Z,11.00
2023-04-15T10:12:42.563Z,12.60
2023-04-15T10:15:17.406Z,11.10
2023-04-15T10:17:48.008Z,13.00
2023-04-15T10:20:17.635Z,7.40
2023-04-15T10:22:46.811Z,5.80
2023-04-15T10:25:16.491Z,4.60
2023-04-15T10:27:45.125Z,4.10
2023-04-15T10:30:13.108Z,4.50
2023-04-15T10:32:41.956Z,4.60
2023-04-15T10:35:11.186Z,4.20
2023-04-15T10:37:39.472Z,4.50
2023-04-15T10:40:31.867Z,4.10
2023-04-15T10:43:02.543Z,4.20
2023-04-15T10:45:37.597Z,3.70
2023-04-15T10:48:09.008Z,4.00
2023-04-15T10:50:37.645Z,4.60
2023-04-15T10:53:05.848Z,4.30
2023-04-15T10:55:34.649Z,4.20
2023-04-15T10:58:03.119Z,3.80
2023-04-15T11:00:32.897Z,4.40
2023-04-15T11:03:09.477Z,3.90
2023-04-15T11:05:54.195Z,3.60
2023-04-15T11:08:58.785Z,3.90
2023-04-15T11:12:09.550Z,4.00
2023-04-15T11:14:41.970Z,4.30
2023-04-15T11:17:10.005Z,4.90
2023-04-15T11:19:38.939Z,4.10
2023-04-15T11:22:11.281Z,4.60
2023-04-15T11:24:51.884Z,4.80
2023-04-15T11:27:23.928Z,4.30
2023-04-15T11:29:52.921Z,4.80
2023-04-15T11:32:21.598Z,5.40
2023-04-15T11:34:49.458Z,4.80
2023-04-15T11:37:17.275Z,6.00
2023-04-15T11:39:45.123Z,5.10
2023-04-15T11:42:19.285Z,4.60
2023-04-15T11:44:47.070Z,5.10
2023-04-15T11:47:25.018Z,4.70
2023-04-15T11:49:52.985Z,5.10
2023-04-15T11:52:20.843Z,4.50
2023-04-15T11:54:48.694Z,5.20
2023-04-15T11:57:16.607Z,4.60
2023-04-15T11:59:46.039Z,5.20
2023-04-15T12:02:14.516Z,4.50
2023-04-15T12:04:42.842Z,4.60
2023-04-15T12:07:12.552Z,5.00
2023-04-15T12:09:40.720Z,4.70
2023-04-15T12:12:08.864Z,5.00
2023-04-15T12:14:38.244Z,5.40
2023-04-15T12:17:06.783Z,4.60
2023-04-15T12:19:37.318Z,4.40
2023-04-15T12:22:15.863Z,4.40
2023-04-15T12:24:47.738Z,4.60
2023-04-15T12:27:17.682Z,4.40
2023-04-15T12:29:45.690Z,4.30
2023-04-15T12:32:19.720Z,5.30
2023-04-15T12:34:53.220Z,4.80
2023-04-15T12:37:21.552Z,5.40
2023-04-15T12:39:50.410Z,5.10
2023-04-15T12:42:18.852Z,5.10
2023-04-15T12:44:47.252Z,5.90
2023-04-15T12:47:15.335Z,6.00
2023-04-15T12:49:43.228Z,6.10
2023-04-15T12:52:13.753Z,6.80
2023-04-15T12:54:41.641Z,7.40
2023-04-15T12:57:09.456Z,6.40
2023-04-15T12:59:37.654Z,6.20
2023-04-15T13:02:05.635Z,7.30
2023-04-15T13:04:33.718Z,6.50
2023-04-15T13:07:02.303Z,7.40
2023-04-15T13:09:32.551Z,8.10
2023-04-15T13:12:01.454Z,7.30
2023-04-15T13:14:31.647Z,6.90
2023-04-15T13:16:59.553Z,8.70
2023-04-15T13:19:27.588Z,8.50
2023-04-15T13:21:55.405Z,7.90
2023-04-15T13:24:23.173Z,7.60
2023-04-15T13:26:51.052Z,8.50
2023-04-15T13:29:18.975Z,7.70
2023-04-15T13:31:46.888Z,8.20
2023-04-15T13:34:14.721Z,7.40
2023-04-15T13:36:42.512Z,8.10
2023-04-15T13:39:10.320Z,7.90
2023-04-15T13:41:38.243Z,8.60
2023-04-15T13:44:06.536Z,8.20
2023-04-15T13:46:34.628Z,8.40
2023-04-15T13:49:02.450Z,8.90
2023-04-15T13:51:30.898Z,9.20
2023-04-15T13:53:58.679Z,9.50
2023-04-15T13:56:26.583Z,10.00
2023-04-15T13:58:58.955Z,8.50
2023-04-15T14:01:27.211Z,12.40
2023-04-15T14:03:58.192Z,9.90
2023-04-15T14:06:28.801Z,9.30
2023-04-15T14:08:56.638Z,9.30
2023-04-15T14:11:24.457Z,9.70
2023-04-15T14:13:52.356Z,9.90
2023-04-15T14:16:20.256Z,8.10
2023-04-15T14:18:48.137Z,8.60
2023-04-15T14:21:15.990Z,9.80
2023-04-15T14:23:45.552Z,9.50
2023-04-15T14:26:14.029Z,9.30
2023-04-15T14:28:44.948Z,10.00
2023-04-15T14:31:13.289Z,9.80
2023-04-15T14:33:41.217Z,10.30
2023-04-15T14:36:10.025Z,10.90
2023-04-15T14:38:40.989Z,10.70
2023-04-15T14:41:09.898Z,10.80
2023-04-15T14:43:39.161Z,10.30
2023-04-15T14:46:08.449Z,11.10
2023-04-15T14:48:37.128Z,12.10
2023-04-15T14:51:05.616Z,12.70
2023-04-15T14:53:33.577Z,12.90
2023-04-15T14:56:01.599Z,13.30
2023-04-15T14:58:29.394Z,13.20
2023-04-15T15:00:57.401Z,13.20
2023-04-15T15:03:25.669Z,15.10
2023-04-15T15:05:54.001Z,14.90
2023-04-15T15:08:21.980Z,12.40
2023-04-15T15:10:50.125Z,13.40
2023-04-15T15:13:19.188Z,13.90
2023-04-15T15:15:49.326Z,12.10
2023-04-15T15:18:19.313Z,12.60
2023-04-15T15:20:47.783Z,15.70
2023-04-15T15:23:15.904Z,13.90
2023-04-15T15:25:45.659Z,11.00
2023-04-15T15:28:13.565Z,13.10
2023-04-15T15:30:41.463Z,10.70
2023-04-15T15:33:09.300Z,13.10
2023-04-15T15:35:37.191Z,12.90
2023-04-15T15:38:05.350Z,11.80
2023-04-15T15:40:33.462Z,11.30
2023-04-15T15:43:01.247Z,12.00
2023-04-15T15:45:29.804Z,13.50
2023-04-15T15:47:58.841Z,10.20
2023-04-15T15:50:26.817Z,9.40
2023-04-15T15:52:55.309Z,9.20
2023-04-15T15:55:25.280Z,9.60
2023-04-15T15:57:54.280Z,11.00
2023-04-15T16:00:23.112Z,11.70
2023-04-15T16:03:06.716Z,13.30
2023-04-15T16:05:36.314Z,13.90
2023-04-15T16:08:04.681Z,14.80
2023-04-15T16:10:32.706Z,14.90
2023-04-15T16:13:00.665Z,28.10
2023-04-15T16:15:28.572Z,15.00
2023-04-15T16:17:56.452Z,14.10
2023-04-15T16:20:24.516Z,14.60
2023-04-15T16:22:52.540Z,14.00
2023-04-15T16:25:20.537Z,14.20
2023-04-15T16:28:00.762Z,14.80
2023-04-15T16:30:31.267Z,16.90
2023-04-15T16:32:59.172Z,17.80
2023-04-15T16:35:27.184Z,15.30
2023-04-15T16:37:54.926Z,17.80
2023-04-15T16:40:22.717Z,17.00
2023-04-15T16:42:52.366Z,15.50
2023-04-15T16:45:20.172Z,14.10
2023-04-15T16:47:50.473Z,12.20
2023-04-15T16:50:18.438Z,12.70
2023-04-15T16:52:46.451Z,10.50
2023-04-15T16:55:14.336Z,11.70
2023-04-15T16:58:00.645Z,13.10
2023-04-15T17:00:31.711Z,12.30
2023-04-15T17:03:00.794Z,12.80
2023-04-15T17:05:30.787Z,12.20
2023-04-15T17:07:59.233Z,12.00
2023-04-15T17:10:27.897Z,12.10
2023-04-15T17:12:57.228Z,11.20
2023-04-15T17:15:26.344Z,12.30
2023-04-15T17:17:54.505Z,11.20
2023-04-15T17:20:22.488Z,11.60
2023-04-15T17:22:50.543Z,11.10
2023-04-15T17:25:19.366Z,9.20
2023-04-15T17:27:47.179Z,9.70
2023-04-15T17:30:14.998Z,8.80
2023-04-15T17:32:42.885Z,9.50
2023-04-15T17:35:10.864Z,9.50
2023-04-15T17:37:39.126Z,10.00
2023-04-15T17:40:08.935Z,9.00
2023-04-15T17:42:36.969Z,8.70
2023-04-15T17:45:05.667Z,9.60
2023-04-15T17:47:33.809Z,10.10
2023-04-15T17:50:02.044Z,8.90
2023-04-15T17:52:30.009Z,9.90
2023-04-15T17:54:58.014Z,9.20
2023-04-15T17:57:26.165Z,9.10
2023-04-15T17:59:54.046Z,9.60
2023-04-15T18:02:22.144Z,9.30
2023-04-15T18:04:50.575Z,9.80
2023-04-15T18:07:18.772Z,9.40
2023-04-15T18:09:47.373Z,10.20
2023-04-15T18:12:15.253Z,11.20
2023-04-15T18:14:43.685Z,14.30
2023-04-15T18:17:13.394Z,11.20
2023-04-15T18:19:41.668Z,13.10
2023-04-15T18:22:09.786Z,12.40
2023-04-15T18:24:37.690Z,12.80
2023-04-15T18:27:05.666Z,12.50
2023-04-15T18:29:34.964Z,13.90
2023-04-15T18:32:03.423Z,15.50
2023-04-15T18:34:31.582Z,16.70
2023-04-15T18:37:01.169Z,15.70
2023-04-15T18:39:29.287Z,15.80
2023-04-15T18:41:57.550Z,16.40
2023-04-15T18:44:25.730Z,14.40
2023-04-15T18:46:53.966Z,16.30
2023-04-15T18:49:22.293Z,15.80
2023-04-15T18:51:51.496Z,14.00
2023-04-15T18:54:19.592Z,13.10
2023-04-15T18:56:48.520Z,15.50
2023-04-15T18:59:29.740Z,12.90
2023-04-15T19:02:00.321Z,12.50
2023-04-15T19:04:29.475Z,11.70
2023-04-15T19:07:00.437Z,12.30
2023-04-15T19:09:29.257Z,12.00
2023-04-15T19:11:57.640Z,10.00
2023-04-15T19:14:25.902Z,11.10
2023-04-15T19:16:56.014Z,10.60
2023-04-15T19:19:26.942Z,10.20
2023-04-15T19:21:55.160Z,10.20
2023-04-15T19:24:23.180Z,9.40
2023-04-15T19:26:51.291Z,8.00
2023-04-15T19:29:22.664Z,8.50
2023-04-15T19:31:50.900Z,9.20
2023-04-15T19:34:19.072Z,9.10
2023-04-15T19:36:47.244Z,9.10
2023-04-15T19:39:15.493Z,9.10
2023-04-15T19:41:44.377Z,9.10
2023-04-15T19:44:13.502Z,7.80
2023-04-15T19:46:44.178Z,8.60
2023-04-15T19:49:17.294Z,7.80
2023-04-15T19:51:45.455Z,8.20
2023-04-15T19:54:13.309Z,9.60
2023-04-15T19:56:41.255Z,9.90
2023-04-15T19:59:09.266Z,10.50
2023-04-15T20:01:37.205Z,10.40
2023-04-15T20:04:05.493Z,16.40
2023-04-15T20:06:33.687Z,50.20
2023-04-15T20:09:02.068Z,10.90
2023-04-15T20:12:44.880Z,58.40
2023-04-15T20:14:17.942Z,62.20
2023-04-15T20:16:45.983Z,15.70
2023-04-15T20:19:13.979Z,10.00
2023-04-15T20:21:42.379Z,27.50
2023-04-15T20:24:13.448Z,15.80
2023-04-15T20:26:41.232Z,16.30
2023-04-15T20:29:09.004Z,27.30
2023-04-15T20:31:38.875Z,13.10
2023-04-15T20:34:07.020Z,32.00
2023-04-15T20:36:35.534Z,12.40
2023-04-15T20:39:03.827Z,10.80
2023-04-15T20:41:31.983Z,11.70
2023-04-15T20:43:59.850Z,12.40
2023-04-15T20:46:28.095Z,14.10
2023-04-15T20:48:56.224Z,11.80
2023-04-15T20:51:24.248Z,12.90
2023-04-15T20:53:52.225Z,13.60
2023-04-15T20:56:20.385Z,13.60
2023-04-15T20:58:48.215Z,13.30
2023-04-15T21:01:16.147Z,14.40
2023-04-15T21:03:44.193Z,13.80
2023-04-15T21:06:12.315Z,15.20
2023-04-15T21:08:41.237Z,18.70
2023-04-15T21:11:09.141Z,19.40
2023-04-15T21:13:36.962Z,17.50
2023-04-15T21:16:05.798Z,17.00
2023-04-15T21:18:33.589Z,15.10
2023-04-15T21:21:02.463Z,17.20
2023-04-15T21:23:30.601Z,15.80
2023-04-15T21:25:58.711Z,15.70
2023-04-15T21:28:27.985Z,18.00
2023-04-15T21:30:59.380Z,16.90
2023-04-15T21:33:27.196Z,17.90
2023-04-15T21:36:00.855Z,18.80
2023-04-15T21:38:28.980Z,17.70
2023-04-15T21:40:57.500Z,16.70
2023-04-15T21:43:25.725Z,18.10
2023-04-15T21:46:22.313Z,18.20
2023-04-15T21:48:41.492Z,19.80
2023-04-15T21:51:09.590Z,19.70
2023-04-15T21:53:37.414Z,18.80
2023-04-15T21:56:08.388Z,19.10
2023-04-15T21:58:36.454Z,18.80
2023-04-15T22:01:04.762Z,19.40
2023-04-15T22:03:34.823Z,19.90
2023-04-15T22:06:03.931Z,18.60
2023-04-15T22:08:38.639Z,79.50
2023-04-15T22:11:28.865Z,23.90
2023-04-15T22:13:58.596Z,19.70
2023-04-15T22:16:26.946Z,20.20
2023-04-15T22:18:55.615Z,19.60
2023-04-15T22:21:23.826Z,20.40
2023-04-15T22:23:52.788Z,21.20
2023-04-15T22:26:20.704Z,20.30
2023-04-15T22:28:48.473Z,20.40
2023-04-15T22:31:16.420Z,22.50
2023-04-15T22:33:44.249Z,22.40
2023-04-15T22:36:13.494Z,48.70
2023-04-15T22:38:41.299Z,82.30
2023-04-15T22:41:09.572Z,165.40
2023-04-15T22:43:37.545Z,140.30
2023-04-15T22:46:05.499Z,28.20
2023-04-15T22:48:34.695Z,23.90
2023-04-15T22:51:04.996Z,23.00
2023-04-15T22:53:32.743Z,24.90
2023-04-15T22:56:00.605Z,22.20
2023-04-15T22:58:28.402Z,22.70
2023-04-15T23:00:56.223Z,23.70
2023-04-15T23:03:39.997Z,22.70
2023-04-15T23:06:25.035Z,22.40
2023-04-15T23:08:53.319Z,23.20
2023-04-15T23:11:26.131Z,24.30
2023-04-15T23:13:57.644Z,24.70
2023-04-15T23:16:25.943Z,24.60
2023-04-15T23:18:54.080Z,24.10
2023-04-15T23:21:22.475Z,22.90
2023-04-15T23:23:51.945Z,23.10
2023-04-15T23:26:19.705Z,22.00
2023-04-15T23:28:47.461Z,96.10
2023-04-15T23:31:15.262Z,82.00
2023-04-15T23:33:43.051Z,25.60
2023-04-15T23:36:10.971Z,26.30
2023-04-15T23:38:38.788Z,25.60
2023-04-15T23:41:06.575Z,32.50
2023-04-15T23:43:34.487Z,31.40
2023-04-15T23:46:02.543Z,30.60
2023-04-15T23:48:31.192Z,32.60
2023-04-15T23:50:59.025Z,33.40
2023-04-15T23:53:27.555Z,34.20
2023-04-15T23:55:56.446Z,34.50
2023-04-15T23:58:24.215Z,34.90
